DLH718 EDDM-RKSI
Flight info
| Callsign | DLH718 |
|---|---|
| Flight time | N/A |
| Altitude | 33000 |
| Route | KIRDI2E KIRDI DCT STEIN DCT TEGRI DCT UDROS UN743 GAKSU DCT SIN UN644 KARDE/N0496F350 UN644 ROLIN DCT TAGAR DCT BT DCT BARAD M747 SUBUT T916 BALUN/K0906F350 T916 TUROK/K0898F370 T916 PIGAL M610 RULAD/K0898S1130 A343 POSOT B215 FKG W188 LIKMI DCT DKO W69 ATSAV/K0891S1190 W69 HUR B339 LADIX W34 VAPGU W100 ORAVA W201 UNSEK A326 DONVO G597 AGAVO/N0487F390 Y644 REBIT REBIT2H |
| Aircraft | A359/H-SDE2E3GHIJ3J4J5LM1ORWXY/LB1D1 |
Departure
| Time | 2026-05-04 18:51 |
|---|---|
| Airport | Munich Airport (EDDM) |
Arrival
| Time | N/A |
|---|---|
| Airport | Incheon International Airport (RKSI) |
| Time | Latitude | Longitude | Altitude | Speed | Heading |
|---|---|---|---|---|---|
| 2026-05-04 17:44 | 48.35305 | 11.79329 | 1492 ft | 0 kts | 263° |
| 2026-05-04 18:34 | 48.35306 | 11.79342 | 1476 ft | 4 kts | 263° |
| 2026-05-04 18:34 | 48.35309 | 11.79383 | 1476 ft | 4 kts | 263° |
| 2026-05-04 18:35 | 48.35312 | 11.79416 | 1479 ft | 3 kts | 264° |
| 2026-05-04 18:35 | 48.35310 | 11.79454 | 1479 ft | 4 kts | 296° |
| 2026-05-04 18:35 | 48.35294 | 11.79480 | 1476 ft | 4 kts | 345° |
| 2026-05-04 18:35 | 48.35261 | 11.79487 | 1476 ft | 4 kts | 353° |
| 2026-05-04 18:36 | 48.35255 | 11.79488 | 1476 ft | 4 kts | 353° |
| 2026-05-04 18:38 | 48.35254 | 11.79488 | 1476 ft | 0 kts | 353° |
| 2026-05-04 18:43 | 48.35257 | 11.79488 | 1491 ft | 2 kts | 353° |
| 2026-05-04 18:43 | 48.35291 | 11.79497 | 1481 ft | 8 kts | 27° |
| 2026-05-04 18:44 | 48.35302 | 11.79584 | 1476 ft | 10 kts | 122° |
| 2026-05-04 18:44 | 48.35261 | 11.79620 | 1476 ft | 10 kts | 166° |
| 2026-05-04 18:44 | 48.35166 | 11.79638 | 1481 ft | 10 kts | 173° |
| 2026-05-04 18:44 | 48.35096 | 11.79651 | 1480 ft | 10 kts | 173° |
| 2026-05-04 18:45 | 48.35027 | 11.79664 | 1487 ft | 10 kts | 173° |
| 2026-05-04 18:45 | 48.34959 | 11.79676 | 1485 ft | 10 kts | 173° |
| 2026-05-04 18:45 | 48.34892 | 11.79688 | 1484 ft | 10 kts | 173° |
| 2026-05-04 18:45 | 48.34827 | 11.79707 | 1481 ft | 9 kts | 158° |
| 2026-05-04 18:46 | 48.34811 | 11.79774 | 1480 ft | 7 kts | 89° |
| 2026-05-04 18:46 | 48.34815 | 11.79843 | 1488 ft | 7 kts | 85° |
| 2026-05-04 18:46 | 48.34819 | 11.79912 | 1491 ft | 7 kts | 85° |
| 2026-05-04 18:46 | 48.34824 | 11.79981 | 1488 ft | 7 kts | 82° |
| 2026-05-04 18:47 | 48.34831 | 11.80059 | 1484 ft | 10 kts | 83° |
| 2026-05-04 18:47 | 48.34838 | 11.80163 | 1478 ft | 10 kts | 83° |
| 2026-05-04 18:47 | 48.34843 | 11.80263 | 1481 ft | 10 kts | 92° |
| 2026-05-04 18:47 | 48.34823 | 11.80356 | 1478 ft | 9 kts | 125° |
| 2026-05-04 18:48 | 48.34771 | 11.80391 | 1476 ft | 8 kts | 170° |
| 2026-05-04 18:48 | 48.34717 | 11.80401 | 1484 ft | 8 kts | 173° |
| 2026-05-04 18:48 | 48.34666 | 11.80410 | 1484 ft | 7 kts | 173° |
| 2026-05-04 18:48 | 48.34616 | 11.80419 | 1484 ft | 7 kts | 175° |
| 2026-05-04 18:49 | 48.34563 | 11.80413 | 1477 ft | 8 kts | 187° |
| 2026-05-04 18:49 | 48.34507 | 11.80403 | 1480 ft | 8 kts | 187° |
| 2026-05-04 18:49 | 48.34477 | 11.80372 | 1479 ft | 0 kts | 263° |
| 2026-05-04 18:50 | 48.34477 | 11.80371 | 1479 ft | 1 kts | 263° |
| 2026-05-04 18:50 | 48.34454 | 11.80097 | 1492 ft | 60 kts | 263° |
| 2026-05-04 18:50 | 48.34379 | 11.79144 | 1492 ft | 122 kts | 264° |
| 2026-05-04 18:50 | 48.34260 | 11.77584 | 1483 ft | 176 kts | 264° |
| 2026-05-04 18:51 | 48.34114 | 11.75719 | 2141 ft | 176 kts | 264° |
| 2026-05-04 18:51 | 48.33967 | 11.73807 | 2665 ft | 192 kts | 264° |
| 2026-05-04 18:51 | 48.33532 | 11.71872 | 2764 ft | 208 kts | 233° |
| 2026-05-04 18:51 | 48.32371 | 11.70556 | 2902 ft | 216 kts | 197° |
| 2026-05-04 18:52 | 48.30868 | 11.70406 | 3143 ft | 221 kts | 171° |
| 2026-05-04 18:52 | 48.29324 | 11.70701 | 3492 ft | 224 kts | 169° |
| 2026-05-04 18:52 | 48.27828 | 11.71449 | 3775 ft | 232 kts | 148° |
| 2026-05-04 18:52 | 48.26474 | 11.72885 | 3942 ft | 245 kts | 141° |
| 2026-05-04 18:53 | 48.25093 | 11.74487 | 4167 ft | 257 kts | 141° |
| 2026-05-04 18:53 | 48.23608 | 11.76089 | 4493 ft | 265 kts | 145° |
| 2026-05-04 18:53 | 48.22084 | 11.77657 | 4991 ft | 266 kts | 146° |
| 2026-05-04 18:53 | 48.20541 | 11.79217 | 5481 ft | 268 kts | 147° |
| 2026-05-04 18:54 | 48.19076 | 11.80918 | 5900 ft | 274 kts | 132° |
| 2026-05-04 18:54 | 48.18232 | 11.83500 | 6365 ft | 279 kts | 100° |
| 2026-05-04 18:54 | 48.18255 | 11.86378 | 6882 ft | 280 kts | 85° |
| 2026-05-04 18:54 | 48.18475 | 11.89297 | 7348 ft | 284 kts | 84° |
| 2026-05-04 18:55 | 48.18730 | 11.92260 | 7852 ft | 287 kts | 84° |
| 2026-05-04 18:55 | 48.19205 | 11.98268 | 8890 ft | 293 kts | 85° |
| 2026-05-04 18:55 | 48.19430 | 12.01326 | 9404 ft | 296 kts | 86° |
| 2026-05-04 18:56 | 48.19651 | 12.04406 | 9916 ft | 299 kts | 86° |
| 2026-05-04 18:56 | 48.19873 | 12.07520 | 10364 ft | 302 kts | 87° |
| 2026-05-04 18:56 | 48.20093 | 12.10670 | 10844 ft | 305 kts | 87° |
| 2026-05-04 18:56 | 48.20314 | 12.13834 | 11338 ft | 307 kts | 87° |
| 2026-05-04 18:57 | 48.20536 | 12.17049 | 11825 ft | 310 kts | 87° |
| 2026-05-04 18:57 | 48.20756 | 12.20237 | 12297 ft | 313 kts | 88° |
| 2026-05-04 18:57 | 48.20981 | 12.23524 | 12786 ft | 315 kts | 88° |
| 2026-05-04 18:57 | 48.21109 | 12.26825 | 13069 ft | 324 kts | 91° |
| 2026-05-04 18:58 | 48.21187 | 12.30269 | 13298 ft | 336 kts | 92° |
| 2026-05-04 18:58 | 48.21246 | 12.33825 | 13522 ft | 347 kts | 92° |
| 2026-05-04 18:58 | 48.21293 | 12.37490 | 13752 ft | 357 kts | 92° |
| 2026-05-04 18:58 | 48.21334 | 12.41289 | 13967 ft | 368 kts | 92° |
| 2026-05-04 18:59 | 48.21374 | 12.45180 | 14173 ft | 378 kts | 92° |
| 2026-05-04 18:59 | 48.21414 | 12.49180 | 14378 ft | 388 kts | 92° |
| 2026-05-04 18:59 | 48.21455 | 12.53273 | 14581 ft | 398 kts | 92° |
| 2026-05-04 18:59 | 48.21497 | 12.57479 | 14779 ft | 408 kts | 92° |
| 2026-05-04 19:00 | 48.21539 | 12.61784 | 14976 ft | 417 kts | 91° |
| 2026-05-04 19:00 | 48.21581 | 12.66160 | 15308 ft | 422 kts | 91° |
| 2026-05-04 19:00 | 48.21622 | 12.70527 | 15720 ft | 424 kts | 91° |
| 2026-05-04 19:00 | 48.21662 | 12.74978 | 16132 ft | 427 kts | 91° |
| 2026-05-04 19:01 | 48.21700 | 12.79447 | 16555 ft | 430 kts | 91° |
| 2026-05-04 19:01 | 48.21737 | 12.83941 | 16977 ft | 432 kts | 91° |
| 2026-05-04 19:01 | 48.21771 | 12.88457 | 17387 ft | 434 kts | 91° |
| 2026-05-04 19:01 | 48.21803 | 12.93001 | 17782 ft | 437 kts | 91° |
| 2026-05-04 19:02 | 48.21833 | 12.97568 | 18217 ft | 438 kts | 91° |
| 2026-05-04 19:02 | 48.21861 | 13.02137 | 18571 ft | 440 kts | 91° |
| 2026-05-04 19:02 | 48.21887 | 13.06742 | 18911 ft | 443 kts | 91° |
| 2026-05-04 19:02 | 48.21912 | 13.11376 | 19254 ft | 445 kts | 91° |
| 2026-05-04 19:03 | 48.21935 | 13.16029 | 19618 ft | 448 kts | 90° |
| 2026-05-04 19:03 | 48.21957 | 13.20703 | 19977 ft | 450 kts | 90° |
| 2026-05-04 19:03 | 48.21976 | 13.25344 | 20346 ft | 452 kts | 90° |
| 2026-05-04 19:03 | 48.21994 | 13.30134 | 20711 ft | 455 kts | 90° |
| 2026-05-04 19:04 | 48.22009 | 13.34831 | 21079 ft | 457 kts | 90° |
| 2026-05-04 19:04 | 48.22024 | 13.39607 | 21463 ft | 460 kts | 91° |
| 2026-05-04 19:04 | 48.22036 | 13.44421 | 21841 ft | 462 kts | 90° |
| 2026-05-04 19:04 | 48.22046 | 13.49257 | 22220 ft | 464 kts | 90° |
| 2026-05-04 19:05 | 48.22055 | 13.54103 | 22594 ft | 467 kts | 90° |
| 2026-05-04 19:05 | 48.22061 | 13.58990 | 22962 ft | 469 kts | 90° |
| 2026-05-04 19:05 | 48.22065 | 13.63910 | 23339 ft | 472 kts | 90° |
| 2026-05-04 19:05 | 48.22067 | 13.68842 | 23670 ft | 474 kts | 90° |
| 2026-05-04 19:06 | 48.22067 | 13.73747 | 23971 ft | 476 kts | 90° |
| 2026-05-04 19:06 | 48.22064 | 13.78730 | 24296 ft | 478 kts | 91° |
| 2026-05-04 19:06 | 48.22060 | 13.83732 | 24600 ft | 480 kts | 91° |
| 2026-05-04 19:06 | 48.22054 | 13.88745 | 24910 ft | 482 kts | 91° |
| 2026-05-04 19:07 | 48.21992 | 13.93791 | 25210 ft | 484 kts | 95° |
| 2026-05-04 19:07 | 48.21542 | 13.98782 | 25498 ft | 485 kts | 103° |
| 2026-05-04 19:07 | 48.20617 | 14.03657 | 25806 ft | 485 kts | 110° |
| 2026-05-04 19:07 | 48.19490 | 14.08433 | 26099 ft | 487 kts | 111° |
| 2026-05-04 19:08 | 48.18354 | 14.13237 | 26404 ft | 489 kts | 111° |
| 2026-05-04 19:08 | 48.17221 | 14.18034 | 26685 ft | 491 kts | 111° |
| 2026-05-04 19:08 | 48.16078 | 14.22874 | 26950 ft | 493 kts | 110° |
| 2026-05-04 19:08 | 48.14928 | 14.27730 | 27218 ft | 495 kts | 111° |
| 2026-05-04 19:09 | 48.14165 | 14.30945 | 27399 ft | 496 kts | 111° |
| 2026-05-04 19:10 | 48.13960 | 14.31807 | 27445 ft | 497 kts | 111° |
| 2026-05-04 19:10 | 48.12796 | 14.36697 | 27713 ft | 498 kts | 111° |
| 2026-05-04 19:10 | 48.11629 | 14.41584 | 27968 ft | 500 kts | 111° |
| 2026-05-04 19:10 | 48.10469 | 14.46434 | 28218 ft | 502 kts | 111° |
| 2026-05-04 19:11 | 48.09284 | 14.51374 | 28473 ft | 504 kts | 111° |
| 2026-05-04 19:11 | 48.08094 | 14.56320 | 28727 ft | 505 kts | 111° |
| 2026-05-04 19:11 | 48.06905 | 14.61255 | 29081 ft | 504 kts | 111° |
| 2026-05-04 19:11 | 48.05713 | 14.66187 | 29387 ft | 505 kts | 110° |
| 2026-05-04 19:12 | 48.04520 | 14.71116 | 29677 ft | 505 kts | 110° |
| 2026-05-04 19:12 | 48.02131 | 14.80956 | 30311 ft | 503 kts | 111° |
| 2026-05-04 19:12 | 48.00937 | 14.85857 | 30590 ft | 501 kts | 111° |
| 2026-05-04 19:13 | 47.99742 | 14.90751 | 30859 ft | 500 kts | 111° |
| 2026-05-04 19:13 | 47.98552 | 14.95614 | 31133 ft | 500 kts | 111° |
| 2026-05-04 19:13 | 47.97354 | 15.00497 | 31374 ft | 499 kts | 111° |
| 2026-05-04 19:14 | 47.94941 | 15.10300 | 31507 ft | 505 kts | 111° |
| 2026-05-04 19:14 | 47.93747 | 15.15133 | 31876 ft | 501 kts | 111° |
| 2026-05-04 19:14 | 47.92544 | 15.19997 | 32193 ft | 499 kts | 111° |
| 2026-05-04 19:15 | 47.90128 | 15.29730 | 32530 ft | 499 kts | 111° |
| 2026-05-04 19:15 | 47.88923 | 15.34569 | 32863 ft | 496 kts | 111° |
| 2026-05-04 19:15 | 47.87719 | 15.39394 | 32938 ft | 499 kts | 112° |
| 2026-05-04 19:16 | 47.85275 | 15.49149 | 32948 ft | 506 kts | 111° |
| 2026-05-04 19:16 | 47.82800 | 15.58986 | 32954 ft | 508 kts | 111° |
| 2026-05-04 19:17 | 47.80321 | 15.68805 | 32951 ft | 506 kts | 111° |
| 2026-05-04 19:17 | 47.77835 | 15.78606 | 32952 ft | 506 kts | 111° |
| 2026-05-04 19:18 | 47.75357 | 15.88330 | 32958 ft | 506 kts | 111° |
| 2026-05-04 19:18 | 47.72858 | 15.98098 | 32956 ft | 505 kts | 111° |
| 2026-05-04 19:19 | 47.70352 | 16.07848 | 32952 ft | 505 kts | 111° |
| 2026-05-04 19:19 | 47.67840 | 16.17583 | 32953 ft | 506 kts | 111° |
| 2026-05-04 19:20 | 47.65309 | 16.27350 | 32960 ft | 507 kts | 111° |
| 2026-05-04 19:20 | 47.62762 | 16.37137 | 32961 ft | 508 kts | 111° |
| 2026-05-04 19:21 | 47.60213 | 16.46890 | 32960 ft | 508 kts | 111° |
| 2026-05-04 19:21 | 47.57665 | 16.56597 | 32959 ft | 508 kts | 111° |
| 2026-05-04 19:22 | 47.55093 | 16.66354 | 32963 ft | 508 kts | 111° |
| 2026-05-04 19:22 | 47.52954 | 16.74439 | 32964 ft | 507 kts | 111° |
| 2026-05-04 19:23 | 47.50372 | 16.84162 | 32962 ft | 508 kts | 111° |
| 2026-05-04 19:23 | 47.47780 | 16.93877 | 32970 ft | 507 kts | 111° |
| 2026-05-04 19:24 | 47.45185 | 17.03570 | 32976 ft | 506 kts | 111° |
| 2026-05-04 19:24 | 47.42580 | 17.13258 | 32981 ft | 506 kts | 111° |
| 2026-05-04 19:25 | 47.39974 | 17.22910 | 32992 ft | 506 kts | 111° |
| 2026-05-04 19:25 | 47.37359 | 17.32554 | 32992 ft | 506 kts | 111° |
| 2026-05-04 19:26 | 47.34749 | 17.42141 | 32993 ft | 506 kts | 111° |
| 2026-05-04 19:26 | 47.32119 | 17.51762 | 32993 ft | 506 kts | 111° |
| 2026-05-04 19:27 | 47.29479 | 17.61382 | 32996 ft | 506 kts | 111° |
| 2026-05-04 19:27 | 47.27275 | 17.69383 | 32996 ft | 506 kts | 111° |
| 2026-05-04 19:28 | 47.24619 | 17.78987 | 32998 ft | 506 kts | 111° |
| 2026-05-04 19:28 | 47.21959 | 17.88572 | 33016 ft | 505 kts | 111° |
| 2026-05-04 19:29 | 47.19310 | 17.98077 | 33020 ft | 505 kts | 111° |
| 2026-05-04 19:29 | 47.16632 | 18.07648 | 33020 ft | 505 kts | 111° |
| 2026-05-04 19:30 | 47.13952 | 18.17187 | 33021 ft | 505 kts | 111° |
| 2026-05-04 19:30 | 47.11261 | 18.26728 | 33029 ft | 505 kts | 111° |
| 2026-05-04 19:31 | 47.08561 | 18.36264 | 33023 ft | 505 kts | 111° |
| 2026-05-04 19:31 | 47.05856 | 18.45777 | 33026 ft | 504 kts | 112° |
| 2026-05-04 19:32 | 47.03147 | 18.55269 | 33029 ft | 504 kts | 112° |
| 2026-05-04 19:32 | 47.00433 | 18.64743 | 33028 ft | 504 kts | 112° |
| 2026-05-04 19:33 | 46.97711 | 18.74205 | 33031 ft | 504 kts | 112° |
| 2026-05-04 19:33 | 46.95000 | 18.83594 | 33037 ft | 504 kts | 112° |
| 2026-05-04 19:34 | 46.92264 | 18.93032 | 33037 ft | 504 kts | 112° |
| 2026-05-04 19:34 | 46.89520 | 19.02463 | 33039 ft | 504 kts | 112° |
| 2026-05-04 19:35 | 46.86768 | 19.11884 | 33049 ft | 504 kts | 112° |
| 2026-05-04 19:35 | 46.84012 | 19.21281 | 33042 ft | 502 kts | 112° |
| 2026-05-04 19:36 | 46.81251 | 19.30663 | 33041 ft | 502 kts | 112° |
| 2026-05-04 19:36 | 46.78504 | 19.39961 | 33045 ft | 502 kts | 112° |
| 2026-05-04 19:37 | 46.75728 | 19.49320 | 33048 ft | 502 kts | 112° |
| 2026-05-04 19:37 | 46.72949 | 19.58651 | 33050 ft | 501 kts | 112° |
| 2026-05-04 19:38 | 46.70164 | 19.67976 | 33050 ft | 501 kts | 112° |
| 2026-05-04 19:38 | 46.67376 | 19.77271 | 33061 ft | 501 kts | 112° |
| 2026-05-04 19:39 | 46.64595 | 19.86509 | 33062 ft | 501 kts | 111° |
| 2026-05-04 19:39 | 46.61789 | 19.95795 | 33055 ft | 501 kts | 112° |
| 2026-05-04 19:40 | 46.58981 | 20.05053 | 33056 ft | 501 kts | 112° |
| 2026-05-04 19:40 | 46.56158 | 20.14330 | 33056 ft | 501 kts | 112° |
| 2026-05-04 19:41 | 46.53332 | 20.23577 | 33055 ft | 501 kts | 112° |
| 2026-05-04 19:41 | 46.50514 | 20.32766 | 33059 ft | 501 kts | 112° |
| 2026-05-04 19:42 | 46.47672 | 20.42003 | 33057 ft | 501 kts | 112° |
| 2026-05-04 19:42 | 46.44821 | 20.51231 | 33069 ft | 501 kts | 112° |
| 2026-05-04 19:43 | 46.41964 | 20.60443 | 33056 ft | 500 kts | 112° |
| 2026-05-04 19:43 | 46.39102 | 20.69646 | 33062 ft | 500 kts | 112° |
| 2026-05-04 19:44 | 46.36229 | 20.78846 | 33062 ft | 500 kts | 112° |
| 2026-05-04 19:44 | 46.33376 | 20.87949 | 33077 ft | 500 kts | 111° |
| 2026-05-04 19:45 | 46.30493 | 20.97115 | 33070 ft | 500 kts | 111° |
| 2026-05-04 19:45 | 46.27604 | 21.06267 | 33072 ft | 499 kts | 111° |
| 2026-05-04 19:46 | 46.24722 | 21.15402 | 33074 ft | 499 kts | 111° |
| 2026-05-04 19:46 | 46.21880 | 21.24566 | 33078 ft | 499 kts | 111° |
| 2026-05-04 19:47 | 46.19041 | 21.33720 | 33075 ft | 499 kts | 111° |
| 2026-05-04 19:47 | 46.16211 | 21.42789 | 33076 ft | 499 kts | 111° |
| 2026-05-04 19:48 | 46.13347 | 21.51916 | 33078 ft | 499 kts | 111° |
| 2026-05-04 19:48 | 46.10473 | 21.61038 | 33080 ft | 499 kts | 111° |
| 2026-05-04 19:49 | 46.07592 | 21.70146 | 33080 ft | 499 kts | 111° |
| 2026-05-04 19:49 | 46.04706 | 21.79244 | 33085 ft | 499 kts | 111° |
| 2026-05-04 19:50 | 46.01811 | 21.88334 | 33083 ft | 499 kts | 111° |
| 2026-05-04 19:50 | 45.98932 | 21.97347 | 33078 ft | 499 kts | 112° |
| 2026-05-04 19:51 | 45.96023 | 22.06418 | 33075 ft | 499 kts | 112° |
| 2026-05-04 19:51 | 45.93108 | 22.15477 | 33098 ft | 499 kts | 112° |
| 2026-05-04 19:52 | 45.90184 | 22.24530 | 33125 ft | 499 kts | 112° |
| 2026-05-04 19:52 | 45.87256 | 22.33565 | 33100 ft | 499 kts | 112° |
| 2026-05-04 19:53 | 45.84316 | 22.42608 | 33099 ft | 500 kts | 112° |
| 2026-05-04 19:53 | 45.81368 | 22.51643 | 33107 ft | 500 kts | 112° |
| 2026-05-04 19:54 | 45.78413 | 22.60666 | 33118 ft | 499 kts | 112° |
| 2026-05-04 19:54 | 45.75472 | 22.69614 | 33113 ft | 499 kts | 112° |
| 2026-05-04 19:55 | 45.72511 | 22.78594 | 33114 ft | 499 kts | 112° |
| 2026-05-04 19:55 | 45.69545 | 22.87562 | 33118 ft | 498 kts | 112° |
| 2026-05-04 19:56 | 45.66567 | 22.96531 | 33117 ft | 499 kts | 113° |